Time;durP1;ratioP1;P1;durP2;ratioP2;P2;SDS_P1;SDS_P2;PMS_P1;PMS_P2;Temp;Humidity;BMP_temperature;BMP_pressure;BME280_temperature;BME280_humidity;BME280_pressure;Samples;Min_cycle;Max_cycle;Signal;HPM_P1;HPM_P2
2022/06/05 00:01:36;;;;;;;6.43;3.47;;;22.60;77.30;;;;;;5073117;28;20182;-73
2022/06/05 00:04:39;;;;;;;3.35;3.15;;;22.60;77.40;;;;;;5070546;28;20183;-72
2022/06/05 00:07:15;;;;;;;5.22;2.65;;;22.60;77.10;;;;;;5069960;28;20210;-74
2022/06/05 00:09:44;;;;;;;3.28;2.95;;;22.60;77.70;;;;;;5067737;28;20180;-72
2022/06/05 00:12:19;;;;;;;4.25;3.15;;;22.60;77.80;;;;;;5073093;28;20211;-72
2022/06/05 00:14:45;;;;;;;3.03;2.83;;;22.60;77.30;;;;;;5067519;28;20189;-72
2022/06/05 00:17:19;;;;;;;3.65;3.45;;;22.60;77.90;;;;;;5072119;28;20214;-72
2022/06/05 00:19:48;;;;;;;2.92;2.72;;;22.60;78.00;;;;;;5068255;28;20249;-73
2022/06/05 00:22:14;;;;;;;2.42;2.33;;;22.60;78.30;;;;;;5073644;28;20214;-72
2022/06/05 00:24:40;;;;;;;3.15;2.90;;;22.60;77.60;;;;;;5068755;28;20225;-74
2022/06/05 00:27:18;;;;;;;2.30;2.20;;;22.50;77.90;;;;;;5074216;28;20340;-73
2022/06/05 00:29:46;;;;;;;4.50;2.95;;;22.50;78.00;;;;;;5063166;28;20185;-72
2022/06/05 00:32:24;;;;;;;2.88;2.67;;;22.50;77.40;;;;;;5070968;28;20218;-74
2022/06/05 00:34:50;;;;;;;2.10;2.10;;;22.50;78.40;;;;;;5070568;28;21042;-72
2022/06/05 00:37:38;;;;;;;5.07;2.63;;;22.50;78.30;;;;;;5073721;28;20269;-73
2022/06/05 00:40:47;;;;;;;2.20;2.10;;;22.50;77.10;;;;;;5073613;28;20275;-72
2022/06/05 00:43:16;;;;;;;3.63;3.08;;;22.50;78.30;;;;;;5070618;28;20178;-72
2022/06/05 00:45:42;;;;;;;7.72;3.05;;;22.40;78.20;;;;;;5077063;28;20176;-72
2022/06/05 00:48:10;;;;;;;4.50;3.08;;;22.40;79.50;;;;;;5077880;28;20242;-73
2022/06/05 00:50:37;;;;;;;3.22;3.13;;;22.40;79.10;;;;;;5077157;28;21251;-73
2022/06/05 00:53:06;;;;;;;2.80;2.70;;;22.50;79.10;;;;;;5079859;28;20182;-72
2022/06/05 00:55:47;;;;;;;3.15;2.72;;;22.40;78.80;;;;;;5075916;28;20236;-72
2022/06/05 00:58:14;;;;;;;4.47;2.90;;;22.40;78.60;;;;;;5073209;28;20190;-72
2022/06/05 01:00:47;;;;;;;2.65;2.55;;;22.40;79.00;;;;;;5072843;28;20210;-72
2022/06/05 01:03:13;;;;;;;4.63;3.05;;;22.30;78.60;;;;;;5077688;28;20612;-73
2022/06/05 01:05:39;;;;;;;3.08;2.83;;;22.30;79.10;;;;;;5072772;28;20186;-73
2022/06/05 01:08:06;;;;;;;3.55;3.30;;;22.30;79.20;;;;;;5075809;28;20211;-72
2022/06/05 01:10:43;;;;;;;3.40;3.10;;;22.20;79.20;;;;;;5074959;28;20184;-72
2022/06/05 01:13:34;;;;;;;2.58;2.45;;;22.20;78.10;;;;;;5072918;28;20190;-72
2022/06/05 01:16:09;;;;;;;3.28;3.08;;;22.10;78.30;;;;;;5074696;28;20394;-72
2022/06/05 01:18:48;;;;;;;3.50;2.97;;;22.00;78.60;;;;;;5074043;28;20185;-73
2022/06/05 01:21:55;;;;;;;2.60;2.50;;;22.00;78.20;;;;;;5075444;28;20211;-73
2022/06/05 01:24:29;;;;;;;3.90;2.38;;;21.90;78.60;;;;;;5092841;28;20201;-72
2022/06/05 01:27:01;;;;;;;3.00;2.70;;;21.90;79.30;;;;;;5093586;28;20312;-73
2022/06/05 01:29:37;;;;;;;2.45;2.35;;;21.90;79.70;;;;;;5076218;28;20226;-73
2022/06/05 01:32:09;;;;;;;3.25;2.25;;;21.90;79.00;;;;;;5091880;28;21101;-73
2022/06/05 01:34:48;;;;;;;5.60;2.42;;;21.80;79.60;;;;;;5091498;28;20200;-73
2022/06/05 01:37:24;;;;;;;2.50;2.40;;;21.80;79.70;;;;;;5088107;28;20212;-73
2022/06/05 01:40:00;;;;;;;2.53;2.42;;;21.80;80.10;;;;;;5090552;28;20190;-73
2022/06/05 01:42:38;;;;;;;3.30;2.58;;;21.70;81.00;;;;;;5091002;28;20264;-73
2022/06/05 01:45:18;;;;;;;4.65;2.85;;;21.70;80.40;;;;;;5085862;28;20191;-73
2022/06/05 01:47:48;;;;;;;3.10;2.90;;;21.60;79.60;;;;;;5074531;28;20745;-73
2022/06/05 01:50:16;;;;;;;3.85;2.42;;;21.60;79.80;;;;;;5093345;28;20194;-72
2022/06/05 01:53:02;;;;;;;2.78;2.53;;;21.60;80.10;;;;;;5095610;28;20659;-72
2022/06/05 01:55:38;;;;;;;3.08;2.58;;;21.60;79.90;;;;;;5090989;28;20253;-72
2022/06/05 01:58:07;;;;;;;2.88;2.63;;;21.60;81.50;;;;;;5085537;28;20216;-72
2022/06/05 02:00:33;;;;;;;2.83;2.60;;;21.60;80.30;;;;;;5085090;28;20187;-73
2022/06/05 02:03:09;;;;;;;3.00;2.75;;;21.60;80.40;;;;;;5078908;28;20174;-72
2022/06/05 02:05:47;;;;;;;4.13;2.83;;;21.60;79.60;;;;;;5068650;28;20183;-72
2022/06/05 02:08:36;;;;;;;2.92;2.78;;;21.60;80.20;;;;;;5060649;28;20210;-73
2022/06/05 02:11:23;;;;;;;6.85;2.58;;;21.60;81.60;;;;;;5071667;28;20198;-72
2022/06/05 02:13:51;;;;;;;6.65;2.72;;;21.60;80.00;;;;;;5075042;28;20189;-72
2022/06/05 02:16:17;;;;;;;3.45;2.85;;;21.60;80.80;;;;;;5072593;28;20201;-72
2022/06/05 02:18:43;;;;;;;2.58;2.47;;;21.60;80.80;;;;;;5075177;28;20554;-72
2022/06/05 02:21:09;;;;;;;2.45;2.35;;;21.60;80.60;;;;;;5061417;28;20790;-72
2022/06/05 02:23:36;;;;;;;2.83;2.53;;;21.60;80.60;;;;;;5071602;28;20262;-72
2022/06/05 02:26:04;;;;;;;2.45;2.22;;;21.60;81.40;;;;;;5072587;28;20239;-72
2022/06/05 02:28:30;;;;;;;3.20;2.70;;;21.60;81.30;;;;;;5075262;28;20218;-73
2022/06/05 02:31:07;;;;;;;2.40;2.30;;;21.60;81.00;;;;;;5067550;28;20186;-72
2022/06/05 02:33:48;;;;;;;2.85;2.20;;;21.50;80.70;;;;;;5077232;28;20182;-72
2022/06/05 02:36:38;;;;;;;2.70;2.38;;;21.50;80.30;;;;;;5071434;28;20945;-72
2022/06/05 02:39:10;;;;;;;2.78;2.53;;;21.50;80.50;;;;;;5071782;28;20186;-73
2022/06/05 02:41:48;;;;;;;3.20;2.92;;;21.40;80.70;;;;;;5077581;28;20268;-72
2022/06/05 02:44:38;;;;;;;2.70;2.42;;;21.40;80.30;;;;;;5072304;28;20207;-72
2022/06/05 02:47:51;;;;;;;2.60;2.50;;;21.40;80.70;;;;;;5030185;28;20745;-72
2022/06/05 02:50:20;;;;;;;2.25;2.15;;;21.40;80.80;;;;;;4981807;28;20193;-72
2022/06/05 02:52:46;;;;;;;3.08;2.80;;;21.30;81.30;;;;;;4967745;28;20603;-72
2022/06/05 02:55:18;;;;;;;3.00;2.80;;;21.30;81.40;;;;;;4982715;28;20312;-73
2022/06/05 02:57:44;;;;;;;5.55;2.80;;;21.30;81.20;;;;;;4983527;28;20197;-73
2022/06/05 03:00:17;;;;;;;2.72;2.63;;;21.20;81.40;;;;;;4966196;28;20294;-73
2022/06/05 03:05:28;;;;;;;3.28;2.40;;;21.20;81.70;;;;;;4981510;28;20208;-73
2022/06/05 03:07:54;;;;;;;2.83;2.08;;;21.10;81.50;;;;;;4982869;28;20230;-72
2022/06/05 03:10:20;;;;;;;3.03;2.50;;;21.00;81.50;;;;;;4981411;28;20196;-73
2022/06/05 03:12:45;;;;;;;2.45;2.25;;;21.00;81.40;;;;;;4982211;28;20248;-73
2022/06/05 03:15:12;;;;;;;2.20;2.10;;;21.00;81.30;;;;;;4981466;28;20606;-73
2022/06/05 03:17:37;;;;;;;2.42;2.30;;;21.00;81.80;;;;;;4981449;28;20201;-73
2022/06/05 03:20:04;;;;;;;2.47;2.38;;;20.90;81.70;;;;;;4980552;28;20202;-73
2022/06/05 03:22:30;;;;;;;2.55;2.40;;;20.90;81.70;;;;;;4980363;28;20667;-73
2022/06/05 03:24:56;;;;;;;4.72;2.42;;;20.90;82.20;;;;;;5005460;28;20188;-73
2022/06/05 03:27:22;;;;;;;2.72;2.53;;;20.90;82.20;;;;;;5059483;28;20302;-73
2022/06/05 03:29:48;;;;;;;3.10;2.60;;;20.90;82.10;;;;;;5071760;28;20609;-73
2022/06/05 03:32:14;;;;;;;2.63;2.42;;;20.90;82.90;;;;;;5073080;28;20193;-72
2022/06/05 03:34:39;;;;;;;3.70;2.55;;;20.90;82.40;;;;;;5073035;28;20189;-73
2022/06/05 03:37:05;;;;;;;5.45;2.75;;;20.90;81.70;;;;;;5070879;28;20179;-73
2022/06/05 03:39:32;;;;;;;3.53;2.75;;;20.90;82.50;;;;;;5071287;28;20183;-73
2022/06/05 03:41:59;;;;;;;2.92;2.72;;;20.90;82.10;;;;;;5072647;28;20190;-73
2022/06/05 03:44:26;;;;;;;4.03;2.75;;;20.80;81.90;;;;;;5064455;28;20178;-72
2022/06/05 03:46:52;;;;;;;7.38;2.47;;;20.80;82.20;;;;;;5070939;28;20186;-73
2022/06/05 03:49:17;;;;;;;2.60;2.40;;;20.80;82.10;;;;;;5072566;28;20195;-72
2022/06/05 03:51:45;;;;;;;3.05;2.95;;;20.90;82.30;;;;;;5071343;28;20194;-73
2022/06/05 03:54:11;;;;;;;3.30;3.10;;;20.90;82.70;;;;;;5075301;28;20189;-72
2022/06/05 03:56:39;;;;;;;3.20;3.10;;;20.90;82.70;;;;;;5072995;28;20212;-72
2022/06/05 03:59:05;;;;;;;2.97;2.88;;;20.90;82.50;;;;;;5072350;28;20195;-73
2022/06/05 04:01:30;;;;;;;3.45;3.15;;;21.00;82.30;;;;;;5073480;28;20186;-73
2022/06/05 04:03:56;;;;;;;3.33;3.10;;;21.00;82.10;;;;;;5072499;28;20179;-73
2022/06/05 04:06:27;;;;;;;2.80;2.67;;;21.00;82.10;;;;;;5073301;28;20686;-73
2022/06/05 04:08:55;;;;;;;3.03;2.83;;;21.00;81.80;;;;;;5056742;28;20218;-73
2022/06/05 04:11:21;;;;;;;2.80;2.58;;;21.00;82.30;;;;;;5068523;28;20179;-73
2022/06/05 04:13:47;;;;;;;3.58;3.40;;;21.10;82.50;;;;;;5062932;28;20183;-74
2022/06/05 04:16:19;;;;;;;3.90;3.60;;;21.10;82.90;;;;;;5073952;28;20194;-73
2022/06/05 04:18:46;;;;;;;3.50;2.92;;;21.20;82.70;;;;;;5070879;28;20187;-74
2022/06/05 04:21:15;;;;;;;4.20;3.60;;;21.20;82.60;;;;;;5069411;28;20183;-72
2022/06/05 04:23:41;;;;;;;3.38;3.08;;;21.20;82.20;;;;;;5071006;28;20178;-73
2022/06/05 04:26:09;;;;;;;3.20;3.00;;;21.20;81.90;;;;;;5072722;28;20186;-72
2022/06/05 04:28:36;;;;;;;3.50;3.28;;;21.20;82.80;;;;;;5069433;28;20419;-72
2022/06/05 04:31:02;;;;;;;2.92;2.60;;;21.30;81.70;;;;;;5069482;28;20182;-73
2022/06/05 04:33:29;;;;;;;3.72;3.33;;;21.30;81.90;;;;;;5072369;28;20277;-73
2022/06/05 04:35:55;;;;;;;2.63;2.42;;;21.30;81.90;;;;;;5057594;28;20186;-72
2022/06/05 04:38:21;;;;;;;3.03;2.92;;;21.40;81.70;;;;;;5071520;28;20198;-70
2022/06/05 04:40:47;;;;;;;3.22;3.00;;;21.40;81.70;;;;;;5073916;28;20186;-73
2022/06/05 04:43:13;;;;;;;3.65;3.55;;;21.40;81.70;;;;;;5059548;28;20175;-72
2022/06/05 04:45:39;;;;;;;3.15;3.00;;;21.50;81.40;;;;;;5071069;28;20648;-73
2022/06/05 04:48:05;;;;;;;3.42;3.17;;;21.50;82.00;;;;;;5073032;28;20214;-72
2022/06/05 04:50:30;;;;;;;3.08;2.88;;;21.60;81.80;;;;;;5064998;28;20201;-72
2022/06/05 04:52:56;;;;;;;2.83;2.70;;;21.60;81.20;;;;;;5073041;28;20231;-71
2022/06/05 04:55:21;;;;;;;4.35;3.75;;;21.70;81.40;;;;;;5068533;28;20183;-74
2022/06/05 04:57:47;;;;;;;5.63;3.17;;;21.70;81.50;;;;;;5068117;28;20187;-72
2022/06/05 05:00:13;;;;;;;8.15;3.00;;;21.80;81.30;;;;;;5069108;28;20235;-73
2022/06/05 05:02:39;;;;;;;5.60;2.65;;;21.90;81.30;;;;;;5072295;28;20657;-74
2022/06/05 05:05:06;;;;;;;3.85;2.72;;;21.90;81.30;;;;;;5068366;28;20183;-72
2022/06/05 05:07:31;;;;;;;3.00;2.80;;;21.90;80.90;;;;;;5074103;28;20758;-72
2022/06/05 05:09:57;;;;;;;3.38;3.20;;;22.00;80.90;;;;;;5075486;28;20255;-72
2022/06/05 05:12:23;;;;;;;2.72;2.53;;;22.00;81.20;;;;;;5067978;28;20242;-71
2022/06/05 05:14:48;;;;;;;3.42;3.22;;;22.10;80.90;;;;;;5071613;28;20290;-71
2022/06/05 05:17:14;;;;;;;3.17;2.97;;;22.20;81.00;;;;;;5070544;28;20187;-72
2022/06/05 05:19:40;;;;;;;5.45;3.10;;;22.20;80.90;;;;;;5069330;28;20225;-72
2022/06/05 05:22:06;;;;;;;3.72;3.42;;;22.30;80.90;;;;;;5073715;28;20665;-72
2022/06/05 05:24:31;;;;;;;3.83;3.42;;;22.40;80.70;;;;;;5073890;28;20211;-73
2022/06/05 05:26:57;;;;;;;4.10;3.72;;;22.40;80.80;;;;;;5067669;28;20187;-72
2022/06/05 05:29:23;;;;;;;3.10;3.00;;;22.50;80.40;;;;;;5071231;28;20194;-73
2022/06/05 05:31:49;;;;;;;4.80;3.35;;;22.50;80.70;;;;;;5066664;28;20187;-73
2022/06/05 05:34:15;;;;;;;3.80;3.42;;;22.60;80.90;;;;;;5064455;28;20304;-72
2022/06/05 05:36:41;;;;;;;3.47;3.17;;;22.60;80.80;;;;;;5071587;28;20700;-72
2022/06/05 05:42:08;;;;;;;3.50;3.25;;;22.70;80.20;;;;;;5072804;28;20746;-73
2022/06/05 05:44:43;;;;;;;3.25;3.00;;;22.80;80.10;;;;;;5062762;28;20733;-73
2022/06/05 05:47:18;;;;;;;3.78;3.17;;;22.90;79.80;;;;;;5074257;28;20190;-73
2022/06/05 05:49:44;;;;;;;3.97;3.70;;;23.00;80.20;;;;;;5076127;28;20372;-73
2022/06/05 05:52:11;;;;;;;3.38;3.20;;;23.10;80.30;;;;;;5076511;28;20175;-73
2022/06/05 05:54:38;;;;;;;4.13;3.92;;;23.10;80.10;;;;;;5072668;28;20263;-73
2022/06/05 05:57:04;;;;;;;4.80;4.47;;;23.20;80.10;;;;;;5068480;28;20183;-73
2022/06/05 05:59:31;;;;;;;4.70;4.05;;;23.30;80.10;;;;;;5070863;28;20183;-73
2022/06/05 06:01:56;;;;;;;4.43;4.10;;;23.40;80.00;;;;;;5077812;28;20564;-73
2022/06/05 06:04:22;;;;;;;4.63;4.28;;;23.50;79.60;;;;;;5072139;28;20182;-73
2022/06/05 06:06:51;;;;;;;5.57;3.88;;;23.50;79.60;;;;;;5076186;28;20199;-73
2022/06/05 06:09:19;;;;;;;4.80;4.55;;;23.60;79.60;;;;;;5070696;28;20236;-73
2022/06/05 06:11:46;;;;;;;5.38;3.90;;;23.70;79.50;;;;;;5075372;28;20189;-73
2022/06/05 06:14:11;;;;;;;5.20;4.75;;;23.70;79.70;;;;;;5073502;28;20183;-73
2022/06/05 06:16:38;;;;;;;5.10;4.70;;;23.80;79.80;;;;;;5068117;28;20568;-73
2022/06/05 06:19:04;;;;;;;4.90;4.35;;;23.90;79.80;;;;;;5094677;28;20202;-73
2022/06/05 06:21:30;;;;;;;6.82;4.68;;;24.00;79.80;;;;;;5075077;28;20190;-73
2022/06/05 06:23:56;;;;;;;4.15;3.80;;;24.00;79.80;;;;;;5074157;28;20259;-73
2022/06/05 06:26:22;;;;;;;5.57;5.20;;;24.10;79.70;;;;;;5076665;28;20958;-73
2022/06/05 06:28:47;;;;;;;4.93;4.32;;;24.20;79.70;;;;;;5072327;28;20270;-73
2022/06/05 06:31:16;;;;;;;4.72;4.35;;;24.30;79.40;;;;;;5070220;28;20320;-73
2022/06/05 06:33:43;;;;;;;6.78;4.72;;;24.40;79.20;;;;;;5080648;28;20671;-73
2022/06/05 06:36:11;;;;;;;4.85;4.45;;;24.50;79.50;;;;;;5071812;28;20182;-73
2022/06/05 06:38:37;;;;;;;9.02;5.00;;;24.60;79.60;;;;;;5072020;28;20571;-73
2022/06/05 06:41:05;;;;;;;4.80;4.50;;;24.60;78.50;;;;;;5073682;28;20566;-73
2022/06/05 06:43:32;;;;;;;5.47;5.10;;;24.70;78.50;;;;;;5074316;28;20269;-73
2022/06/05 06:45:59;;;;;;;5.20;4.78;;;24.80;78.90;;;;;;5077349;28;20774;-73
2022/06/05 06:48:28;;;;;;;7.45;5.20;;;24.80;78.30;;;;;;5070323;28;20218;-74
2022/06/05 06:50:55;;;;;;;5.25;4.85;;;24.80;78.80;;;;;;5069457;28;20285;-73
2022/06/05 06:53:22;;;;;;;6.13;4.80;;;24.90;78.00;;;;;;5074311;28;20191;-73
2022/06/05 06:55:49;;;;;;;7.20;4.50;;;25.00;78.40;;;;;;5066593;28;20684;-72
2022/06/05 06:58:14;;;;;;;5.22;4.75;;;25.00;79.20;;;;;;5072873;28;20219;-72
2022/06/05 07:00:40;;;;;;;5.20;4.70;;;25.00;78.30;;;;;;5069054;28;20210;-72
2022/06/05 07:03:06;;;;;;;4.93;4.63;;;25.00;79.00;;;;;;5056619;28;20202;-73
2022/06/05 07:05:32;;;;;;;5.22;4.75;;;25.10;79.40;;;;;;5068949;28;20249;-73
2022/06/05 07:07:58;;;;;;;4.82;4.50;;;25.00;78.90;;;;;;5069085;28;21919;-74
2022/06/05 07:10:24;;;;;;;5.15;4.63;;;25.10;78.40;;;;;;5073861;28;20182;-73
2022/06/05 07:12:50;;;;;;;5.82;4.82;;;25.20;78.70;;;;;;5069225;28;21179;-73
2022/06/05 07:15:16;;;;;;;4.68;4.40;;;25.30;78.20;;;;;;5067429;28;20298;-72
2022/06/05 07:17:42;;;;;;;4.43;3.95;;;25.30;78.40;;;;;;5078812;28;20721;-73
2022/06/05 07:20:08;;;;;;;3.63;3.42;;;25.30;77.30;;;;;;5070469;28;20178;-73
2022/06/05 07:22:34;;;;;;;3.92;3.72;;;25.50;76.60;;;;;;5067766;28;20245;-73
2022/06/05 07:25:00;;;;;;;4.38;3.78;;;25.50;76.60;;;;;;5068881;28;20935;-73
2022/06/05 07:27:27;;;;;;;3.83;3.63;;;25.60;76.90;;;;;;5068513;28;20206;-73
2022/06/05 07:29:53;;;;;;;4.82;3.95;;;25.60;76.00;;;;;;5067987;28;20571;-73
2022/06/05 07:32:20;;;;;;;4.40;4.00;;;25.60;76.20;;;;;;5069440;28;20179;-72
2022/06/05 07:34:47;;;;;;;4.38;4.18;;;25.70;76.40;;;;;;5088781;28;20758;-72
2022/06/05 07:37:13;;;;;;;4.25;3.58;;;25.80;75.50;;;;;;5069130;28;20178;-73
2022/06/05 07:39:40;;;;;;;4.53;3.55;;;25.90;75.40;;;;;;5060835;28;20186;-72
2022/06/05 07:42:06;;;;;;;4.47;4.07;;;25.90;75.40;;;;;;5073024;28;20189;-74
2022/06/05 07:44:32;;;;;;;4.65;3.85;;;26.00;75.60;;;;;;5063931;28;20175;-74
2022/06/05 07:47:02;;;;;;;4.82;4.18;;;26.10;75.10;;;;;;5067560;28;20625;-72
2022/06/05 07:49:27;;;;;;;6.00;4.13;;;26.10;75.00;;;;;;5070006;28;20311;-72
2022/06/05 07:54:38;;;;;;;4.13;3.92;;;26.30;75.10;;;;;;5064658;28;21762;-74
2022/06/05 07:57:05;;;;;;;3.85;3.65;;;26.30;74.90;;;;;;5069062;28;20974;-71
2022/06/05 07:59:33;;;;;;;3.58;3.40;;;26.20;74.10;;;;;;5068106;28;20209;-72
2022/06/05 08:02:03;;;;;;;3.75;3.55;;;26.30;74.10;;;;;;5063932;28;20210;-72
2022/06/05 08:04:30;;;;;;;3.60;3.40;;;26.40;74.50;;;;;;5069938;28;20734;-72
2022/06/05 08:06:58;;;;;;;3.70;3.60;;;26.40;74.00;;;;;;5070505;28;20178;-71
2022/06/05 08:09:25;;;;;;;4.05;3.67;;;26.50;74.50;;;;;;5069163;28;20275;-72
2022/06/05 08:11:51;;;;;;;4.10;3.85;;;26.40;74.40;;;;;;5061183;28;20182;-71
2022/06/05 08:14:17;;;;;;;3.60;3.30;;;26.30;74.00;;;;;;5069115;28;20189;-71
2022/06/05 08:16:43;;;;;;;3.63;3.42;;;26.20;74.40;;;;;;5068378;28;20185;-71
2022/06/05 08:19:11;;;;;;;3.60;3.47;;;26.30;74.20;;;;;;5065065;28;20186;-72
2022/06/05 08:21:38;;;;;;;3.13;2.92;;;26.40;73.90;;;;;;5064430;28;20186;-72
2022/06/05 08:24:05;;;;;;;4.00;3.67;;;26.40;73.90;;;;;;5068731;28;20349;-72
2022/06/05 08:26:30;;;;;;;3.97;3.33;;;26.50;73.80;;;;;;5087104;28;20243;-72
2022/06/05 08:28:56;;;;;;;8.25;3.70;;;26.50;73.90;;;;;;5065945;28;20218;-72
2022/06/05 08:31:22;;;;;;;3.42;3.33;;;26.40;73.40;;;;;;5058000;28;20273;-72
2022/06/05 08:33:47;;;;;;;3.35;3.15;;;26.40;74.10;;;;;;5069088;28;20207;-71
2022/06/05 08:36:13;;;;;;;3.30;3.20;;;26.40;73.80;;;;;;5071716;28;20285;-71
2022/06/05 08:41:45;;;;;;;3.22;3.13;;;26.50;72.90;;;;;;5068303;28;20679;-72
2022/06/05 08:44:29;;;;;;;3.75;3.05;;;26.60;72.40;;;;;;5052322;28;20206;-72
2022/06/05 08:47:11;;;;;;;2.70;2.58;;;26.70;72.00;;;;;;5064782;28;20187;-72
2022/06/05 08:49:47;;;;;;;2.97;2.85;;;26.70;71.50;;;;;;5063515;28;20191;-71
2022/06/05 08:52:36;;;;;;;2.50;2.30;;;26.80;71.70;;;;;;5066395;28;20177;-72
2022/06/05 08:55:12;;;;;;;3.28;2.60;;;26.80;71.40;;;;;;5067725;28;20330;-74
2022/06/05 08:58:01;;;;;;;2.88;2.78;;;26.80;71.10;;;;;;5070974;28;20189;-72
2022/06/05 09:00:36;;;;;;;2.50;2.40;;;26.80;70.50;;;;;;5001967;28;20192;-72
2022/06/05 09:03:26;;;;;;;2.88;2.47;;;26.80;70.50;;;;;;5001314;28;20340;-72
2022/06/05 09:05:57;;;;;;;2.25;2.17;;;27.00;70.40;;;;;;5002822;28;20192;-73
2022/06/05 09:08:27;;;;;;;3.72;2.38;;;27.00;69.40;;;;;;5002158;28;20251;-73
2022/06/05 09:10:59;;;;;;;2.42;2.22;;;27.10;69.20;;;;;;5012045;28;20300;-73
2022/06/05 09:13:42;;;;;;;2.40;2.22;;;27.30;68.80;;;;;;5010236;28;20226;-73
2022/06/05 09:16:15;;;;;;;2.00;1.90;;;27.30;67.00;;;;;;5011391;28;20196;-73
2022/06/05 09:18:46;;;;;;;2.38;2.22;;;27.30;67.00;;;;;;5011340;28;20293;-73
2022/06/05 09:21:39;;;;;;;2.78;2.08;;;27.30;67.30;;;;;;5001178;28;20784;-73
2022/06/05 09:24:07;;;;;;;2.05;1.95;;;27.30;66.60;;;;;;5010489;28;20286;-73
2022/06/05 09:26:38;;;;;;;1.85;1.75;;;27.50;67.00;;;;;;5012630;28;20710;-72
2022/06/05 09:29:14;;;;;;;2.03;1.98;;;27.60;66.80;;;;;;5003985;28;20228;-73
2022/06/05 09:31:47;;;;;;;1.77;1.67;;;27.70;64.80;;;;;;5009144;28;20253;-73
2022/06/05 09:34:17;;;;;;;2.20;2.10;;;27.70;66.10;;;;;;4991792;28;20196;-73
2022/06/05 09:36:55;;;;;;;3.63;2.00;;;27.80;64.70;;;;;;5017565;28;21052;-71
2022/06/05 09:39:29;;;;;;;2.08;2.08;;;27.60;64.70;;;;;;5062945;28;20567;-74
2022/06/05 09:42:22;;;;;;;2.22;1.95;;;27.70;65.90;;;;;;5072429;28;20255;-74
2022/06/05 09:45:13;;;;;;;2.17;1.42;;;27.90;64.20;;;;;;5064289;28;20720;-72
2022/06/05 09:48:01;;;;;;;1.95;1.83;;;28.00;65.20;;;;;;5069228;28;20700;-72
2022/06/05 09:50:29;;;;;;;1.90;1.80;;;28.20;63.60;;;;;;5071494;28;20174;-72
2022/06/05 09:52:55;;;;;;;2.25;2.25;;;28.20;63.70;;;;;;5062979;28;20179;-72
2022/06/05 09:55:39;;;;;;;2.30;2.10;;;28.30;64.40;;;;;;5073560;28;20198;-71
2022/06/05 09:58:27;;;;;;;2.72;1.58;;;28.40;63.70;;;;;;5057427;28;20705;-72
2022/06/05 10:00:59;;;;;;;2.25;1.85;;;28.60;63.00;;;;;;5066642;28;20202;-72
2022/06/05 10:03:37;;;;;;;6.03;1.67;;;28.70;64.30;;;;;;5076949;28;20634;-73
2022/06/05 10:06:11;;;;;;;1.73;1.50;;;28.90;63.90;;;;;;5073141;28;20182;-72
2022/06/05 10:09:12;;;;;;;1.52;1.45;;;29.10;62.30;;;;;;5068175;28;20718;-73
2022/06/05 10:12:10;;;;;;;1.92;1.92;;;29.20;61.70;;;;;;5064827;28;20590;-75
2022/06/05 10:14:39;;;;;;;5.05;1.92;;;29.40;62.50;;;;;;5076985;28;20190;-74
2022/06/05 10:17:10;;;;;;;2.17;2.08;;;29.60;61.90;;;;;;5073716;28;20659;-74
2022/06/05 10:20:05;;;;;;;2.00;1.90;;;29.80;61.00;;;;;;5069474;28;20218;-74
2022/06/05 10:22:53;;;;;;;1.70;1.70;;;30.00;60.70;;;;;;5065636;28;20187;-73
2022/06/05 10:25:54;;;;;;;1.88;1.77;;;30.30;60.90;;;;;;5073469;28;20186;-73
2022/06/05 10:28:30;;;;;;;1.63;1.63;;;30.70;59.60;;;;;;5067380;28;20222;-73
2022/06/05 10:31:09;;;;;;;1.98;1.83;;;31.00;59.20;;;;;;5072396;28;20187;-73
2022/06/05 10:34:04;;;;;;;1.65;1.52;;;31.30;58.90;;;;;;5068961;28;20747;-72
2022/06/05 10:36:59;;;;;;;2.38;2.28;;;31.60;59.20;;;;;;5062261;28;20686;-73
2022/06/05 10:39:40;;;;;;;2.28;2.17;;;31.90;58.60;;;;;;5072047;28;20306;-74
2022/06/05 10:42:25;;;;;;;1.98;1.95;;;32.30;58.70;;;;;;5069255;28;20187;-74
2022/06/05 10:45:13;;;;;;;2.33;2.15;;;32.90;57.60;;;;;;5069329;28;20201;-74
2022/06/05 10:47:47;;;;;;;1.40;1.40;;;33.40;54.80;;;;;;5070974;28;20266;-73
2022/06/05 10:50:37;;;;;;;3.42;1.90;;;33.70;56.00;;;;;;5070018;28;20311;-74
2022/06/05 10:53:18;;;;;;;2.35;1.90;;;34.00;56.10;;;;;;5062649;28;21156;-74
2022/06/05 10:56:12;;;;;;;2.03;2.00;;;34.60;55.20;;;;;;5066383;28;20220;-72
2022/06/05 10:59:06;;;;;;;2.10;1.60;;;35.10;54.80;;;;;;5065150;28;20189;-74
2022/06/05 11:02:01;;;;;;;1.80;1.70;;;35.70;53.10;;;;;;5069087;28;20246;-73
2022/06/05 11:04:38;;;;;;;1.77;1.70;;;36.20;51.60;;;;;;5090595;28;20198;-74
2022/06/05 11:07:36;;;;;;;1.65;1.42;;;36.40;51.20;;;;;;5070853;28;20186;-73
2022/06/05 11:13:39;;;;;;;1.60;1.52;;;36.40;51.00;;;;;;5057631;28;20239;-74
2022/06/05 11:16:19;;;;;;;2.60;1.50;;;36.20;51.00;;;;;;5074736;28;20212;-73
2022/06/05 11:18:52;;;;;;;1.83;1.73;;;35.80;52.90;;;;;;5066037;28;20186;-73
2022/06/05 11:21:20;;;;;;;3.42;1.50;;;35.90;50.20;;;;;;5064067;28;20186;-73
2022/06/05 11:23:50;;;;;;;1.10;1.10;;;35.90;51.30;;;;;;5070321;28;20181;-73
2022/06/05 11:26:21;;;;;;;0.90;0.90;;;36.10;51.20;;;;;;5069431;28;20198;-73
2022/06/05 11:28:57;;;;;;;0.90;0.90;;;36.50;48.80;;;;;;5069379;28;20218;-73
2022/06/05 11:31:30;;;;;;;1.10;1.10;;;36.60;49.90;;;;;;5071755;28;20185;-74
2022/06/05 11:34:45;;;;;;;1.20;1.20;;;37.10;50.50;;;;;;5074070;28;20682;-73
2022/06/05 11:37:16;;;;;;;1.48;0.80;;;37.30;48.80;;;;;;4982782;28;20685;-73
2022/06/05 11:40:12;;;;;;;0.50;0.50;;;37.30;46.70;;;;;;5000048;28;20197;-73
2022/06/05 11:42:50;;;;;;;0.73;0.73;;;37.60;44.90;;;;;;4997879;28;20215;-73
2022/06/05 11:45:31;;;;;;;0.80;0.68;;;37.80;46.60;;;;;;5001124;28;20991;-72
2022/06/05 11:48:16;;;;;;;0.60;0.60;;;38.00;45.20;;;;;;4999649;28;20232;-72
2022/06/05 11:50:59;;;;;;;0.63;0.50;;;38.40;44.90;;;;;;4996624;28;20357;-73
2022/06/05 11:54:00;;;;;;;0.73;0.73;;;38.80;44.60;;;;;;4984684;28;20288;-74
2022/06/05 11:56:50;;;;;;;0.60;0.60;;;39.20;43.50;;;;;;5002166;28;20576;-73
2022/06/05 11:59:39;;;;;;;0.70;0.70;;;39.80;45.80;;;;;;5001041;28;20189;-73
2022/06/05 12:02:32;;;;;;;1.75;0.65;;;39.90;42.50;;;;;;4998391;28;20219;-73
2022/06/05 12:05:23;;;;;;;0.70;0.70;;;39.50;44.70;;;;;;4999420;28;20176;-74
2022/06/05 12:07:50;;;;;;;0.80;0.80;;;38.60;45.40;;;;;;5030524;28;20229;-73
2022/06/05 12:10:28;;;;;;;1.85;0.85;;;37.90;47.50;;;;;;5074245;28;20177;-73
2022/06/05 12:13:01;;;;;;;0.90;0.90;;;37.30;45.90;;;;;;5075744;28;20178;-74
2022/06/05 12:15:40;;;;;;;0.90;0.90;;;36.90;47.00;;;;;;5073563;28;20189;-73
2022/06/05 12:18:21;;;;;;;1.00;1.00;;;37.00;49.40;;;;;;5071385;28;20544;-73
2022/06/05 12:20:54;;;;;;;1.10;1.10;;;37.50;48.20;;;;;;5075151;28;20186;-73
2022/06/05 12:23:29;;;;;;;4.97;0.77;;;37.90;49.50;;;;;;5071893;28;20216;-73
2022/06/05 12:26:19;;;;;;;1.25;0.95;;;38.30;46.60;;;;;;5085307;28;20187;-73
2022/06/05 12:28:51;;;;;;;1.23;1.13;;;38.70;45.70;;;;;;5071759;28;20210;-74
2022/06/05 12:31:29;;;;;;;1.60;1.50;;;39.10;47.10;;;;;;5069900;28;20210;-75
2022/06/05 12:34:00;;;;;;;1.30;1.30;;;39.40;47.40;;;;;;5071303;28;20182;-73
2022/06/05 12:36:36;;;;;;;1.40;1.40;;;39.30;47.60;;;;;;5072140;28;20186;-73
2022/06/05 12:39:27;;;;;;;1.27;1.15;;;39.00;48.20;;;;;;5074342;28;20565;-73
2022/06/05 12:41:57;;;;;;;1.00;1.00;;;38.40;47.50;;;;;;5069299;28;20672;-74
2022/06/05 12:44:32;;;;;;;2.15;1.30;;;37.80;47.10;;;;;;5074555;28;20178;-73
2022/06/05 12:47:03;;;;;;;0.80;0.80;;;37.10;50.20;;;;;;5071864;28;20234;-74
2022/06/05 12:49:41;;;;;;;1.50;0.90;;;37.20;50.70;;;;;;5070385;28;20244;-74
2022/06/05 12:52:27;;;;;;;2.25;0.80;;;37.40;47.50;;;;;;5069710;28;20196;-74
2022/06/05 12:55:26;;;;;;;1.10;1.10;;;37.70;48.10;;;;;;5068117;28;20192;-73
2022/06/05 12:58:10;;;;;;;0.90;0.90;;;38.00;46.90;;;;;;5069919;28;20715;-73
2022/06/05 13:00:45;;;;;;;0.95;0.95;;;37.80;47.20;;;;;;5071755;28;20226;-73
2022/06/05 13:03:22;;;;;;;0.93;0.93;;;37.60;49.30;;;;;;5068428;28;20196;-74
2022/06/05 13:06:11;;;;;;;1.00;1.00;;;37.20;47.00;;;;;;5065892;28;20247;-73
2022/06/05 13:08:42;;;;;;;1.00;1.00;;;37.10;47.20;;;;;;5087298;28;20213;-74
2022/06/05 13:11:40;;;;;;;0.75;0.75;;;37.20;48.70;;;;;;5070462;28;20179;-72
2022/06/05 13:14:39;;;;;;;1.45;0.80;;;37.20;50.30;;;;;;5026441;28;20621;-71
2022/06/05 13:17:29;;;;;;;0.68;0.68;;;37.40;48.20;;;;;;5034965;28;20191;-72
2022/06/05 13:20:13;;;;;;;3.50;0.90;;;37.40;48.30;;;;;;5012313;28;20812;-71
2022/06/05 13:23:09;;;;;;;0.63;0.63;;;37.50;46.80;;;;;;5039201;28;20685;-72
2022/06/05 13:25:55;;;;;;;2.05;0.68;;;37.10;48.00;;;;;;5022296;28;20620;-71
2022/06/05 13:28:48;;;;;;;0.80;0.80;;;36.80;50.40;;;;;;5024443;28;20691;-73
2022/06/05 13:31:26;;;;;;;0.70;0.70;;;36.30;48.90;;;;;;5028132;28;20206;-71
2022/06/05 13:34:12;;;;;;;9.25;1.02;;;36.10;50.90;;;;;;5042709;28;20191;-73
2022/06/05 13:36:51;;;;;;;1.10;1.00;;;35.90;49.70;;;;;;5021624;28;20210;-73